createdAt,value
2022-11-12T00:01:13.764Z,99791.56
2022-11-12T00:03:59.162Z,99800.88
2022-11-12T00:06:44.725Z,99794.28
2022-11-12T00:09:30.557Z,99789.78
2022-11-12T00:12:15.941Z,99788.63
2022-11-12T00:15:01.751Z,99788.06
2022-11-12T00:17:47.579Z,99793.31
2022-11-12T00:20:33.530Z,99798.28
2022-11-12T00:23:18.844Z,99802.56
2022-11-12T00:26:04.471Z,99801.16
2022-11-12T00:28:49.772Z,99799.91
2022-11-12T00:31:35.053Z,99793.25
2022-11-12T00:34:20.530Z,99799.72
2022-11-12T00:37:06.164Z,99796.59
2022-11-12T00:39:51.938Z,99798.69
2022-11-12T00:42:37.382Z,99797.34
2022-11-12T00:45:22.930Z,99792.84
2022-11-12T00:48:08.386Z,99793.78
2022-11-12T00:51:03.820Z,99791.66
2022-11-12T00:53:50.670Z,99803.53
2022-11-12T00:56:36.800Z,99803.03
2022-11-12T00:59:22.673Z,99807.72
2022-11-12T01:02:08.209Z,99806.09
2022-11-12T01:04:53.663Z,99808.66
2022-11-12T01:07:39.093Z,99809.63
2022-11-12T01:10:24.733Z,99811.22
2022-11-12T01:13:10.499Z,99806.97
2022-11-12T01:15:56.124Z,99804.69
2022-11-12T01:18:42.082Z,99799.22
2022-11-12T01:21:31.453Z,99788.25
2022-11-12T01:24:16.981Z,99780.78
2022-11-12T01:27:02.455Z,99784.38
2022-11-12T01:29:47.972Z,99780.06
2022-11-12T01:32:37.498Z,99781.59
2022-11-12T01:35:23.026Z,99773.13
2022-11-12T01:38:08.605Z,99780.59
2022-11-12T01:40:54.557Z,99779.47
2022-11-12T01:43:40.288Z,99764.91
2022-11-12T01:46:29.951Z,99759.97
2022-11-12T01:49:33.468Z,99762.81
2022-11-12T01:52:26.804Z,99763.91
2022-11-12T01:55:19.184Z,99769.38
2022-11-12T01:58:11.038Z,99762.16
2022-11-12T02:00:57.692Z,99765.00
2022-11-12T02:03:43.499Z,99759.34
2022-11-12T02:06:29.570Z,99765.69
2022-11-12T02:09:15.301Z,99747.59
2022-11-12T02:12:01.589Z,99761.28
2022-11-12T02:14:47.342Z,99747.94
2022-11-12T02:17:33.665Z,99746.53
2022-11-12T02:20:19.838Z,99753.00
2022-11-12T02:23:08.275Z,99754.69
2022-11-12T02:25:53.657Z,99744.25
2022-11-12T02:28:39.041Z,99749.06
2022-11-12T02:31:24.387Z,99749.72
2022-11-12T02:34:10.000Z,99749.31
2022-11-12T02:36:55.378Z,99749.63
2022-11-12T02:39:40.759Z,99744.25
2022-11-12T02:42:26.286Z,99749.03
2022-11-12T02:45:11.885Z,99741.53
2022-11-12T02:47:57.951Z,99744.56
2022-11-12T02:50:43.574Z,99749.88
2022-11-12T02:53:29.222Z,99747.44
2022-11-12T02:56:15.353Z,99749.91
2022-11-12T02:59:01.425Z,99747.13
2022-11-12T03:01:47.168Z,99748.47
2022-11-12T03:04:32.693Z,99741.81
2022-11-12T03:07:18.340Z,99747.25
2022-11-12T03:10:05.756Z,99749.78
2022-11-12T03:12:51.656Z,99745.63
2022-11-12T03:15:37.381Z,99747.53
2022-11-12T03:18:23.234Z,99744.25
2022-11-12T03:21:08.930Z,99744.56
2022-11-12T03:23:54.233Z,99749.50
2022-11-12T03:26:39.728Z,99749.03
2022-11-12T03:29:26.387Z,99742.06
2022-11-12T03:32:12.031Z,99747.59
2022-11-12T03:34:57.414Z,99741.00
2022-11-12T03:37:42.947Z,99738.59
2022-11-12T03:40:29.868Z,99734.66
2022-11-12T03:43:15.177Z,99736.47
2022-11-12T03:46:02.009Z,99736.56
2022-11-12T03:48:47.671Z,99743.97
2022-11-12T03:51:33.126Z,99748.03
2022-11-12T03:54:20.104Z,99737.44
2022-11-12T03:57:05.402Z,99744.19
2022-11-12T03:59:50.931Z,99739.22
2022-11-12T04:02:36.874Z,99736.63
2022-11-12T04:05:41.986Z,99727.47
2022-11-12T04:08:36.595Z,99733.84
2022-11-12T04:11:22.375Z,99730.59
2022-11-12T04:14:07.946Z,99734.00
2022-11-12T04:17:12.312Z,99734.28
2022-11-12T04:20:16.977Z,99738.28
2022-11-12T04:23:02.812Z,99744.72
2022-11-12T04:26:07.700Z,99744.66
2022-11-12T04:29:12.349Z,99740.66
2022-11-12T04:32:00.400Z,99736.47
2022-11-12T04:34:46.222Z,99732.84
2022-11-12T04:37:44.442Z,99729.91
2022-11-12T04:40:49.971Z,99740.56
2022-11-12T04:43:54.278Z,99729.00
2022-11-12T04:46:40.109Z,99738.34
2022-11-12T04:49:25.612Z,99730.81
2022-11-12T04:52:11.090Z,99737.03
2022-11-12T04:54:57.167Z,99739.63
2022-11-12T04:57:42.916Z,99743.69
2022-11-12T05:00:28.559Z,99746.50
2022-11-12T05:03:15.096Z,99738.00
2022-11-12T05:06:03.816Z,99745.97
2022-11-12T05:08:49.190Z,99739.72
2022-11-12T05:11:35.089Z,99742.84
2022-11-12T05:14:22.021Z,99747.91
2022-11-12T05:17:07.677Z,99742.16
2022-11-12T05:19:53.224Z,99741.34
2022-11-12T05:22:47.756Z,99736.47
2022-11-12T05:25:39.989Z,99744.66
2022-11-12T05:28:25.911Z,99742.47
2022-11-12T05:31:11.517Z,99749.00
2022-11-12T05:33:57.286Z,99741.94
2022-11-12T05:36:42.870Z,99749.50
2022-11-12T05:39:28.685Z,99742.69
2022-11-12T05:42:14.894Z,99750.75
2022-11-12T05:45:00.606Z,99752.94
2022-11-12T05:47:46.350Z,99752.97
2022-11-12T05:50:39.881Z,99754.22
2022-11-12T05:53:37.296Z,99751.31
2022-11-12T05:56:22.743Z,99757.91
2022-11-12T05:59:10.957Z,99759.06
2022-11-12T06:01:56.847Z,99759.97
2022-11-12T06:04:42.582Z,99759.19
2022-11-12T06:07:28.104Z,99767.69
2022-11-12T06:10:19.082Z,99772.44
2022-11-12T06:13:07.031Z,99767.50
2022-11-12T06:15:54.089Z,99772.06
2022-11-12T06:18:39.625Z,99768.56
2022-11-12T06:21:27.674Z,99772.06
2022-11-12T06:24:13.536Z,99771.44
2022-11-12T06:26:59.617Z,99770.78
2022-11-12T06:29:45.129Z,99770.63
2022-11-12T06:32:30.549Z,99780.22
2022-11-12T06:35:18.063Z,99768.13
2022-11-12T06:38:03.917Z,99766.06
2022-11-12T06:40:49.462Z,99778.34
2022-11-12T06:43:35.726Z,99771.84
2022-11-12T06:46:21.578Z,99773.66
2022-11-12T06:49:07.343Z,99769.16
2022-11-12T06:51:53.191Z,99773.19
2022-11-12T06:54:38.995Z,99766.59
2022-11-12T06:57:24.618Z,99768.34
2022-11-12T07:00:11.855Z,99762.47
2022-11-12T07:02:57.978Z,99762.59
2022-11-12T07:05:43.950Z,99767.59
2022-11-12T07:08:29.534Z,99762.97
2022-11-12T07:11:16.632Z,99777.69
2022-11-12T07:14:02.484Z,99773.28
2022-11-12T07:16:48.030Z,99762.22
2022-11-12T07:19:33.604Z,99764.53
2022-11-12T07:22:19.357Z,99764.91
2022-11-12T07:25:05.825Z,99772.53
2022-11-12T07:27:53.206Z,99772.75
2022-11-12T07:30:39.404Z,99770.56
2022-11-12T07:33:25.945Z,99776.47
2022-11-12T07:36:15.019Z,99774.78
2022-11-12T07:39:01.166Z,99770.84
2022-11-12T07:41:46.788Z,99772.97
2022-11-12T07:44:32.731Z,99775.72
2022-11-12T07:47:21.323Z,99774.50
2022-11-12T07:50:07.258Z,99777.22
2022-11-12T07:52:52.987Z,99781.00
2022-11-12T07:55:38.350Z,99772.50
2022-11-12T07:58:24.918Z,99771.47
2022-11-12T08:01:31.941Z,99762.56
2022-11-12T08:04:18.663Z,99768.38
2022-11-12T08:07:04.539Z,99773.03
2022-11-12T08:09:50.344Z,99772.13
2022-11-12T08:12:36.124Z,99774.66
2022-11-12T08:15:21.953Z,99776.09
2022-11-12T08:18:07.538Z,99776.78
2022-11-12T08:20:53.378Z,99776.22
2022-11-12T08:23:38.957Z,99770.34
2022-11-12T08:26:26.414Z,99777.38
2022-11-12T08:29:11.838Z,99768.97
2022-11-12T08:31:57.436Z,99764.03
2022-11-12T08:34:43.752Z,99765.31
2022-11-12T08:37:29.744Z,99764.22
2022-11-12T08:40:15.729Z,99758.44
2022-11-12T08:43:10.012Z,99757.25
2022-11-12T08:45:59.742Z,99758.41
2022-11-12T08:48:45.140Z,99756.41
2022-11-12T08:51:30.659Z,99753.41
2022-11-12T08:54:16.039Z,99754.34
2022-11-12T08:57:01.551Z,99752.38
2022-11-12T08:59:47.341Z,99756.59
2022-11-12T09:02:32.693Z,99750.09
2022-11-12T09:05:18.160Z,99755.59
2022-11-12T09:08:10.137Z,99752.28
2022-11-12T09:10:58.301Z,99740.28
2022-11-12T09:13:43.730Z,99742.06
2022-11-12T09:16:29.483Z,99753.09
2022-11-12T09:19:15.310Z,99747.97
2022-11-12T09:22:00.776Z,99754.22
2022-11-12T09:24:46.282Z,99744.25
2022-11-12T09:27:31.725Z,99740.38
2022-11-12T09:30:17.365Z,99737.72
2022-11-12T09:33:02.858Z,99740.56
2022-11-12T09:35:48.780Z,99742.25
2022-11-12T09:38:34.527Z,99738.84
2022-11-12T09:41:30.028Z,99733.00
2022-11-12T09:44:22.119Z,99738.44
2022-11-12T09:47:21.012Z,99731.25
2022-11-12T09:50:27.904Z,99724.47
2022-11-12T09:53:32.899Z,99727.44
2022-11-12T09:56:24.491Z,99734.38
2022-11-12T09:59:13.581Z,99727.94
2022-11-12T10:02:47.951Z,99722.22
2022-11-12T10:05:41.451Z,99722.44
2022-11-12T10:09:00.831Z,99724.13
2022-11-12T10:12:22.595Z,99727.63
2022-11-12T10:16:08.719Z,99722.47
2022-11-12T10:19:16.575Z,99716.63
2022-11-12T10:22:13.740Z,99718.88
2022-11-12T10:25:14.719Z,99720.53
2022-11-12T10:28:12.702Z,99721.44
2022-11-12T10:31:10.987Z,99713.47
2022-11-12T10:34:16.678Z,99712.94
2022-11-12T10:37:15.430Z,99710.28
2022-11-12T10:40:20.982Z,99704.00
2022-11-12T10:43:18.925Z,99705.09
2022-11-12T10:46:29.015Z,99707.72
2022-11-12T10:49:14.368Z,99703.16
2022-11-12T10:52:00.696Z,99707.81
2022-11-12T10:54:50.935Z,99713.81
2022-11-12T10:57:39.540Z,99704.84
2022-11-12T11:00:25.487Z,99700.69
2022-11-12T11:03:22.466Z,99702.25
2022-11-12T11:06:22.935Z,99690.41
2022-11-12T11:09:17.319Z,99689.16
2022-11-12T11:12:03.523Z,99686.34
2022-11-12T11:15:18.228Z,99689.56
2022-11-12T11:18:04.669Z,99686.13
2022-11-12T11:21:14.738Z,99682.03
2022-11-12T11:24:20.786Z,99678.09
2022-11-12T11:27:48.700Z,99676.38
2022-11-12T11:30:35.214Z,99675.84
2022-11-12T11:33:58.322Z,99667.13
2022-11-12T11:37:16.349Z,99668.16
2022-11-12T11:40:20.250Z,99668.31
2022-11-12T11:43:58.246Z,99671.41
2022-11-12T11:46:59.233Z,99661.53
2022-11-12T11:49:56.897Z,99652.69
2022-11-12T11:53:19.506Z,99642.00
2022-11-12T11:56:28.817Z,99640.00
2022-11-12T11:59:56.457Z,99640.06
2022-11-12T12:03:22.490Z,99639.53
2022-11-12T12:06:36.677Z,99634.06
2022-11-12T12:09:46.172Z,99623.06
2022-11-12T12:12:50.797Z,99632.75
2022-11-12T12:16:07.076Z,99626.41
2022-11-12T12:19:04.838Z,99625.59
2022-11-12T12:21:51.824Z,99620.84
2022-11-12T12:24:56.293Z,99626.41
2022-11-12T12:28:00.785Z,99605.75
2022-11-12T12:30:51.996Z,99620.16
2022-11-12T12:34:15.416Z,99613.84
2022-11-12T12:37:27.673Z,99613.34
2022-11-12T12:41:06.220Z,99606.19
2022-11-12T12:44:04.049Z,99595.97
2022-11-12T12:47:01.040Z,99588.69
2022-11-12T12:49:49.010Z,99592.31
2022-11-12T12:53:02.871Z,99586.72
2022-11-12T12:55:51.724Z,99594.22
2022-11-12T12:58:40.529Z,99598.66
2022-11-12T13:01:34.167Z,99593.59
2022-11-12T13:04:55.509Z,99592.66
2022-11-12T13:07:46.371Z,99577.00
2022-11-12T13:10:44.528Z,99577.66
2022-11-12T13:13:38.582Z,99584.38
2022-11-12T13:16:52.492Z,99583.84
2022-11-12T13:19:53.368Z,99579.72
2022-11-12T13:22:38.717Z,99574.59
2022-11-12T13:25:28.804Z,99574.00
2022-11-12T13:28:14.403Z,99579.72
2022-11-12T13:31:03.739Z,99571.44
2022-11-12T13:33:49.574Z,99576.13
2022-11-12T13:36:35.694Z,99577.31
2022-11-12T13:39:24.098Z,99573.09
2022-11-12T13:42:34.741Z,99568.56
2022-11-12T13:45:25.330Z,99566.44
2022-11-12T13:48:36.521Z,99570.97
2022-11-12T13:51:52.087Z,99565.06
2022-11-12T13:54:39.120Z,99566.78
2022-11-12T13:57:30.194Z,99564.09
2022-11-12T14:00:20.714Z,99556.75
2022-11-12T14:03:07.891Z,99558.63
2022-11-12T14:05:53.860Z,99561.50
2022-11-12T14:08:57.658Z,99553.13
2022-11-12T14:12:17.389Z,99560.53
2022-11-12T14:15:18.608Z,99559.13
2022-11-12T14:18:30.829Z,99561.28
2022-11-12T14:21:18.464Z,99562.34
2022-11-12T14:24:05.213Z,99561.03
2022-11-12T14:26:51.009Z,99557.91
2022-11-12T14:29:41.106Z,99555.88
2022-11-12T14:32:37.125Z,99544.09
2022-11-12T14:35:29.958Z,99553.88
2022-11-12T14:38:53.937Z,99541.00
2022-11-12T14:41:42.809Z,99544.09
2022-11-12T14:44:37.338Z,99541.16
2022-11-12T14:47:24.291Z,99539.25
2022-11-12T14:50:18.080Z,99537.50
2022-11-12T14:53:20.477Z,99539.22
2022-11-12T14:56:32.625Z,99535.44
2022-11-12T14:59:21.527Z,99536.19
2022-11-12T15:02:42.681Z,99536.00
2022-11-12T15:05:27.480Z,99532.28
2022-11-12T15:08:13.857Z,99537.88
2022-11-12T15:11:24.607Z,99519.63
2022-11-12T15:14:21.779Z,99523.31
2022-11-12T15:17:07.350Z,99520.53
2022-11-12T15:19:52.790Z,99513.25
2022-11-12T15:22:38.443Z,99510.50
2022-11-12T15:25:26.779Z,99514.69
2022-11-12T15:28:25.269Z,99506.13
2022-11-12T15:31:22.043Z,99506.66
2022-11-12T15:34:38.872Z,99498.56
2022-11-12T15:37:30.749Z,99500.81
2022-11-12T15:40:21.945Z,99482.56
2022-11-12T15:43:32.025Z,99490.91
2022-11-12T15:46:20.611Z,99487.66
2022-11-12T15:49:13.272Z,99496.16
2022-11-12T15:52:01.765Z,99491.41
2022-11-12T15:54:47.500Z,99483.97
2022-11-12T15:57:49.333Z,99484.06
2022-11-12T16:00:37.358Z,99490.59
2022-11-12T16:03:23.143Z,99488.31
2022-11-12T16:06:12.263Z,99476.50
2022-11-12T16:08:57.896Z,99477.91
2022-11-12T16:11:43.439Z,99484.63
2022-11-12T16:14:28.988Z,99489.75
2022-11-12T16:17:19.037Z,99490.66
2022-11-12T16:20:18.451Z,99487.47
2022-11-12T16:23:04.945Z,99490.41
2022-11-12T16:25:50.448Z,99490.69
2022-11-12T16:28:36.260Z,99484.69
2022-11-12T16:31:22.035Z,99489.00
2022-11-12T16:34:08.130Z,99480.28
2022-11-12T16:36:53.599Z,99484.06
2022-11-12T16:39:39.358Z,99479.16
2022-11-12T16:42:24.704Z,99486.34
2022-11-12T16:45:10.416Z,99475.38
2022-11-12T16:47:56.311Z,99478.66
2022-11-12T16:50:41.763Z,99473.25
2022-11-12T16:53:27.550Z,99477.81
2022-11-12T16:56:17.734Z,99472.81
2022-11-12T16:59:04.492Z,99468.56
2022-11-12T17:01:49.869Z,99470.44
2022-11-12T17:04:35.425Z,99464.03
2022-11-12T17:07:21.045Z,99462.69
2022-11-12T17:10:06.961Z,99464.25
2022-11-12T17:12:52.761Z,99465.72
2022-11-12T17:15:38.358Z,99461.59
2022-11-12T17:18:23.640Z,99459.38
2022-11-12T17:21:16.261Z,99468.41
2022-11-12T17:24:01.537Z,99465.91
2022-11-12T17:26:47.443Z,99460.97
2022-11-12T17:29:32.825Z,99460.97
2022-11-12T17:32:18.612Z,99463.44
2022-11-12T17:35:04.618Z,99461.66
2022-11-12T17:37:51.378Z,99463.22
2022-11-12T17:40:36.922Z,99458.84
2022-11-12T17:43:22.445Z,99458.56
2022-11-12T17:46:09.826Z,99455.88
2022-11-12T17:48:56.542Z,99457.59
2022-11-12T17:51:42.138Z,99459.06
2022-11-12T17:54:27.674Z,99468.09
2022-11-12T17:57:13.091Z,99455.13
2022-11-12T17:59:58.524Z,99461.44
2022-11-12T18:02:44.027Z,99452.19
2022-11-12T18:05:30.476Z,99450.13
2022-11-12T18:08:16.114Z,99454.47
2022-11-12T18:11:02.985Z,99448.44
2022-11-12T18:13:48.449Z,99453.13
2022-11-12T18:16:33.896Z,99447.13
2022-11-12T18:19:19.457Z,99448.72
2022-11-12T18:22:04.880Z,99449.19
2022-11-12T18:24:50.652Z,99444.84
2022-11-12T18:27:37.424Z,99447.44
2022-11-12T18:30:23.226Z,99442.63
2022-11-12T18:33:08.910Z,99441.59
2022-11-12T18:36:17.961Z,99435.78
2022-11-12T18:39:05.072Z,99441.63
2022-11-12T18:41:51.322Z,99442.97
2022-11-12T18:44:37.182Z,99443.34
2022-11-12T18:47:22.605Z,99438.19
2022-11-12T18:50:09.078Z,99436.03
2022-11-12T18:52:54.700Z,99432.25
2022-11-12T18:55:40.184Z,99430.06
2022-11-12T18:58:29.417Z,99420.47
2022-11-12T19:01:23.100Z,99427.09
2022-11-12T19:04:11.005Z,99419.59
2022-11-12T19:06:56.872Z,99420.88
2022-11-12T19:09:42.438Z,99417.88
2022-11-12T19:12:28.862Z,99416.03
2022-11-12T19:15:14.267Z,99413.88
2022-11-12T19:18:04.089Z,99410.25
2022-11-12T19:20:49.734Z,99409.16
2022-11-12T19:23:35.563Z,99412.53
2022-11-12T19:26:22.354Z,99419.00
2022-11-12T19:29:07.676Z,99412.56
2022-11-12T19:31:53.016Z,99413.91
2022-11-12T19:34:38.567Z,99410.28
2022-11-12T19:37:33.431Z,99410.28
2022-11-12T19:40:20.047Z,99413.28
2022-11-12T19:43:05.427Z,99412.78
2022-11-12T19:45:50.937Z,99417.59
2022-11-12T19:48:36.670Z,99411.28
2022-11-12T19:51:22.251Z,99417.25
2022-11-12T19:54:08.410Z,99418.91
2022-11-12T19:56:53.726Z,99424.38
2022-11-12T19:59:42.475Z,99417.28
2022-11-12T20:02:29.056Z,99407.66
2022-11-12T20:05:14.427Z,99412.81
2022-11-12T20:07:59.938Z,99410.81
2022-11-12T20:10:45.731Z,99405.13
2022-11-12T20:13:31.814Z,99402.34
2022-11-12T20:16:24.880Z,99400.69
2022-11-12T20:19:11.336Z,99396.75
2022-11-12T20:21:57.039Z,99403.34
2022-11-12T20:24:42.675Z,99399.06
2022-11-12T20:27:28.202Z,99397.69
2022-11-12T20:30:13.688Z,99399.69
2022-11-12T20:32:59.345Z,99396.88
2022-11-12T20:35:45.449Z,99405.84
2022-11-12T20:38:31.325Z,99404.03
2022-11-12T20:41:20.282Z,99403.19
2022-11-12T20:44:06.318Z,99400.56
2022-11-12T20:46:51.707Z,99392.94
2022-11-12T20:49:37.157Z,99392.41
2022-11-12T20:52:22.537Z,99390.44
2022-11-12T20:55:08.272Z,99389.25
2022-11-12T20:57:54.406Z,99389.59
2022-11-12T21:00:40.740Z,99385.66
2022-11-12T21:03:26.533Z,99390.09
2022-11-12T21:06:19.686Z,99379.31
2022-11-12T21:09:05.010Z,99382.50
2022-11-12T21:11:50.534Z,99385.81
2022-11-12T21:14:35.947Z,99383.63
2022-11-12T21:17:21.326Z,99386.13
2022-11-12T21:20:07.535Z,99386.16
2022-11-12T21:22:52.822Z,99378.34
2022-11-12T21:25:39.326Z,99365.91
2022-11-12T21:28:25.124Z,99364.56
2022-11-12T21:31:17.863Z,99360.91
2022-11-12T21:34:04.526Z,99361.25
2022-11-12T21:36:50.070Z,99359.78
2022-11-12T21:39:35.514Z,99356.47
2022-11-12T21:42:20.895Z,99359.94
2022-11-12T21:45:06.993Z,99350.00
2022-11-12T21:47:53.700Z,99347.03
2022-11-12T21:50:39.343Z,99350.47
2022-11-12T21:53:25.075Z,99340.53
2022-11-12T21:56:17.750Z,99346.84
2022-11-12T21:59:04.470Z,99338.00
2022-11-12T22:01:50.172Z,99338.06
2022-11-12T22:04:35.633Z,99353.63
2022-11-12T22:07:21.056Z,99344.03
2022-11-12T22:10:07.269Z,99340.03
2022-11-12T22:13:24.694Z,99334.19
2022-11-12T22:15:58.943Z,99338.34
2022-11-12T22:18:48.365Z,99325.94
2022-11-12T22:21:38.611Z,99326.78
2022-11-12T22:24:25.497Z,99338.00
2022-11-12T22:27:10.833Z,99328.41
2022-11-12T22:29:56.309Z,99322.44
2022-11-12T22:32:41.799Z,99324.09
2022-11-12T22:35:27.087Z,99311.00
2022-11-12T22:38:12.675Z,99312.50
2022-11-12T22:41:04.279Z,99309.88
2022-11-12T22:43:53.009Z,99300.06
2022-11-12T22:46:38.646Z,99306.22
2022-11-12T22:49:24.126Z,99309.47
2022-11-12T22:52:09.558Z,99301.41
2022-11-12T22:54:54.773Z,99298.41
2022-11-12T22:57:40.834Z,99289.34
2022-11-12T23:00:32.217Z,99289.47
2022-11-12T23:03:17.921Z,99286.66
2022-11-12T23:06:05.994Z,99292.97
2022-11-12T23:08:53.123Z,99295.13
2022-11-12T23:11:38.747Z,99288.81
2022-11-12T23:14:24.771Z,99289.13
2022-11-12T23:17:10.365Z,99287.50
2022-11-12T23:19:55.733Z,99282.50
2022-11-12T23:22:41.251Z,99277.91
2022-11-12T23:25:26.610Z,99280.41
2022-11-12T23:28:12.187Z,99275.72
2022-11-12T23:30:57.799Z,99277.22
2022-11-12T23:33:53.335Z,99273.69
2022-11-12T23:36:38.828Z,99270.94
2022-11-12T23:39:24.493Z,99270.09
2022-11-12T23:42:09.962Z,99266.09
2022-11-12T23:44:55.442Z,99269.75
2022-11-12T23:47:41.323Z,99260.97
2022-11-12T23:50:26.794Z,99256.97
2022-11-12T23:53:12.623Z,99260.63
2022-11-12T23:55:58.142Z,99254.03
2022-11-12T23:58:44.758Z,99253.19
